Armington, IL (61721)

7:41 PM CST on January 19, 2017 (GMT -0600)
BFE Armington | | Change Station
Active Advisory: Dense Fog Advisory

Elev 627 ft 40.34 °N, 89.31 °W | Updated 5 seconds ago

Overcast
Overcast
40.3 °F
Feels Like 40 °F
N
2.2
Wind Variable Wind from East

Today
High -- | Low -- °F
--% Chance of Precip.
Yesterday
High -- | Low -- °F
Precip. -- in
Pressure 29.73 in
Visibility 1.8 miles
Clouds Overcast 600 ft
Windchill 40 °F
Dew Point 40 °F
Humidity 99%
Rainfall 0.49 in
Snow Depth Not available.
7:16 AM 5:00 PM
Waning Gibbous, 49% visible
METAR KAAA 200135Z AUTO 09007KT 1 3/4SM DZ OVC006 06/06 A2973 RMK AO2 T00560056
Pressure 29.73 in
Visibility 1.8 miles
Clouds Overcast 600 ft
Windchill 40 °F
Dew Point 40 °F
Humidity 99%
Rainfall 0.49 in
Snow Depth Not available.
7:16 AM 5:00 PM
Waning Gibbous, 49% visible
METAR KAAA 200135Z AUTO 09007KT 1 3/4SM DZ OVC006 06/06 A2973 RMK AO2 T00560056

Get Your Daily Forecast Email!

Thanks for signing up!

Be on the lookout for a verification email in your inbox.

You'll start receiving the daily forecast at 8 AM.

×

10-Day Weather Forecast

Almanac

Astronomy

Jan. 19, 2017 Rise Set
Actual Time
Civil Twilight
Nautical Twilight
Astronomical Twilight
Moon
Length of Visible Light
Length of Day
Tomorrow will be .
, % of the Moon is Illuminated

Today's Extremes

State Highs State Lows

Community

WunderPhotos

Upload Photos

1,962,540 photos uploaded!

WunderBlog® & News

Nearby

Air Quality

  Air Quality AQ Index Pollutant
Not available.

Snow Depth

Station Depth Elevation

Earthquake Activity

City Distance Mag. Time & Date
Minimum magnitude displayed is 2.5.

Coastal Water Temperatures

Place Temperature

Stations

Nearby Weather Stations

Station Location Temp. Windchill Dew Point Humidity Wind Precip. Elev Updated Type
                   

Watches & Warnings

Dense Fog Advisory
Issued: 3:08 PM CST Jan. 19, 2017 – National Weather Service

... Dense fog advisory in effect from 9 PM this evening to 9 am
CST Friday...

The National Weather Service in Lincoln has issued a dense fog
advisory... which is in effect from 9 PM this evening to 9 am CST
Friday.

* Visibility... localized areas will see visibility down to a
quarter mile this evening... with the dense fog becoming more
widespread after midnight. The fog should begin to lift around
mid morning Friday.

* Impacts... drivers should be prepared for rapidly changing
visibility. Be alert for slow moving traffic... especially Friday
morning during the commute to work or school.

Precautionary/preparedness actions...

A dense fog advisory means visibilities will frequently be
reduced to less than one quarter mile. If driving... slow down...
use your headlights... and leave plenty of distance ahead of you.



Geelhart